createdAt,value
2017-05-06T00:00:51.465Z,10.59
2017-05-06T00:02:01.727Z,10.51
2017-05-06T00:03:11.989Z,10.64
2017-05-06T00:04:22.256Z,10.55
2017-05-06T00:05:32.215Z,10.43
2017-05-06T00:06:42.160Z,10.48
2017-05-06T00:07:52.421Z,10.48
2017-05-06T00:09:02.724Z,10.58
2017-05-06T00:10:12.369Z,10.53
2017-05-06T00:11:22.636Z,10.53
2017-05-06T00:12:32.899Z,10.48
2017-05-06T00:13:43.166Z,10.42
2017-05-06T00:14:53.435Z,10.45
2017-05-06T00:16:03.701Z,10.42
2017-05-06T00:17:13.046Z,10.46
2017-05-06T00:18:23.310Z,10.38
2017-05-06T00:19:33.574Z,10.42
2017-05-06T00:20:43.867Z,10.45
2017-05-06T00:21:54.135Z,10.33
2017-05-06T00:23:04.403Z,10.41
2017-05-06T00:24:14.347Z,10.38
2017-05-06T00:25:24.613Z,10.39
2017-05-06T00:26:34.876Z,10.33
2017-05-06T00:27:45.143Z,10.34
2017-05-06T00:28:55.447Z,10.38
2017-05-06T00:30:05.077Z,10.39
2017-05-06T00:31:15.034Z,10.39
2017-05-06T00:32:25.295Z,10.36
2017-05-06T00:33:35.562Z,10.34
2017-05-06T00:34:45.857Z,10.43
2017-05-06T00:35:56.131Z,10.55
2017-05-06T00:37:06.394Z,10.57
2017-05-06T00:38:16.030Z,10.48
2017-05-06T00:39:25.983Z,10.49
2017-05-06T00:40:36.247Z,10.42
2017-05-06T00:41:46.195Z,10.48
2017-05-06T00:42:56.457Z,10.51
2017-05-06T00:44:06.722Z,10.49
2017-05-06T00:45:16.663Z,10.45
2017-05-06T00:46:26.923Z,10.34
2017-05-06T00:47:37.197Z,10.34
2017-05-06T00:48:47.461Z,10.33
2017-05-06T00:49:57.423Z,10.38
2017-05-06T00:51:07.374Z,10.3
2017-05-06T00:52:17.328Z,10.24
2017-05-06T00:53:27.596Z,10.21
2017-05-06T00:54:37.860Z,10.17
2017-05-06T00:55:48.123Z,10.24
2017-05-06T00:56:58.388Z,10.18
2017-05-06T00:58:08.337Z,10.23
2017-05-06T00:59:18.304Z,10.24
2017-05-06T01:00:28.572Z,10.13
2017-05-06T01:01:38.525Z,10.15
2017-05-06T01:02:48.795Z,10.05
2017-05-06T01:03:59.064Z,10.1
2017-05-06T01:05:09.334Z,10.07
2017-05-06T01:06:19.605Z,9.95
2017-05-06T01:07:29.869Z,9.95
2017-05-06T01:08:40.135Z,9.91
2017-05-06T01:09:50.400Z,10.05
2017-05-06T01:11:00.665Z,9.97
2017-05-06T01:12:10.930Z,10.1
2017-05-06T01:13:21.196Z,10.17
2017-05-06T01:14:31.459Z,10.21
2017-05-06T01:15:41.718Z,10.1
2017-05-06T01:16:51.984Z,10.2
2017-05-06T01:18:02.248Z,10.18
2017-05-06T01:19:12.203Z,10.15
2017-05-06T01:20:22.466Z,10.2
2017-05-06T01:21:32.413Z,10.27
2017-05-06T01:22:42.055Z,10.28
2017-05-06T01:23:52.333Z,10.3
2017-05-06T01:25:02.615Z,10.21
2017-05-06T01:26:12.559Z,10.21
2017-05-06T01:27:22.511Z,10.24
2017-05-06T01:28:32.459Z,10.39
2017-05-06T01:29:42.756Z,10.39
2017-05-06T01:30:53.025Z,10.21
2017-05-06T01:32:02.978Z,10.21
2017-05-06T01:33:12.606Z,10.28
2017-05-06T01:34:22.564Z,10.3
2017-05-06T01:35:32.830Z,10.33
2017-05-06T01:36:43.092Z,10.43
2017-05-06T01:37:53.356Z,10.46
2017-05-06T01:39:03.628Z,10.49
2017-05-06T01:40:13.580Z,10.51
2017-05-06T01:41:23.534Z,10.59
2017-05-06T01:42:33.793Z,10.57
2017-05-06T01:43:44.061Z,10.45
2017-05-06T01:44:54.013Z,10.53
2017-05-06T01:46:04.279Z,10.59
2017-05-06T01:47:14.544Z,10.62
2017-05-06T01:48:24.811Z,10.67
2017-05-06T01:49:34.766Z,10.61
2017-05-06T01:50:44.720Z,10.72
2017-05-06T01:51:54.992Z,10.68
2017-05-06T01:53:05.258Z,10.62
2017-05-06T01:54:15.212Z,10.64
2017-05-06T01:55:25.472Z,10.51
2017-05-06T01:56:35.744Z,10.49
2017-05-06T01:57:46.006Z,10.43
2017-05-06T01:58:56.272Z,10.45
2017-05-06T02:00:06.534Z,10.38
2017-05-06T02:01:16.792Z,10.43
2017-05-06T02:02:27.050Z,10.38
2017-05-06T02:03:37.316Z,10.45
2017-05-06T02:04:47.275Z,10.48
2017-05-06T02:05:57.541Z,10.43
2017-05-06T02:07:07.804Z,10.41
2017-05-06T02:08:17.751Z,10.25
2017-05-06T02:09:28.020Z,10.18
2017-05-06T02:10:38.283Z,10.2
2017-05-06T02:11:48.597Z,10.1
2017-05-06T02:12:58.859Z,10
2017-05-06T02:14:08.816Z,10.07
2017-05-06T02:15:18.763Z,10.02
2017-05-06T02:16:29.030Z,10.07
2017-05-06T02:17:39.312Z,9.95
2017-05-06T02:18:49.577Z,9.94
2017-05-06T02:19:59.843Z,9.95
2017-05-06T02:21:10.101Z,9.9
2017-05-06T02:22:20.362Z,9.9
2017-05-06T02:23:30.323Z,10.02
2017-05-06T02:24:40.274Z,10.02
2017-05-06T02:25:50.238Z,10.1
2017-05-06T02:27:00.506Z,10.1
2017-05-06T02:28:10.765Z,10.18
2017-05-06T02:29:21.064Z,10.17
2017-05-06T02:30:31.326Z,10.2
2017-05-06T02:31:40.969Z,10.31
2017-05-06T02:32:51.250Z,10.27
2017-05-06T02:34:01.209Z,10.23
2017-05-06T02:35:11.161Z,10.15
2017-05-06T02:36:21.428Z,10.15
2017-05-06T02:37:31.686Z,10.2
2017-05-06T02:38:41.636Z,10.1
2017-05-06T02:39:51.911Z,10.15
2017-05-06T02:41:02.206Z,10.07
2017-05-06T02:42:12.474Z,10.1
2017-05-06T02:43:22.426Z,10.06
2017-05-06T02:44:32.695Z,10.03
2017-05-06T02:45:42.329Z,10.09
2017-05-06T02:46:52.591Z,10.02
2017-05-06T02:48:02.543Z,9.95
2017-05-06T02:49:12.805Z,9.92
2017-05-06T02:50:23.078Z,9.9
2017-05-06T02:51:33.376Z,9.8
2017-05-06T02:52:43.641Z,9.8
2017-05-06T02:53:53.605Z,9.8
2017-05-06T02:55:03.560Z,9.81
2017-05-06T02:56:13.506Z,9.76
2017-05-06T02:57:23.455Z,9.76
2017-05-06T02:58:33.721Z,9.81
2017-05-06T02:59:43.990Z,9.76
2017-05-06T03:00:54.256Z,9.64
2017-05-06T03:02:04.525Z,9.66
2017-05-06T03:03:14.787Z,9.63
2017-05-06T03:04:25.051Z,9.56
2017-05-06T03:05:34.995Z,9.58
2017-05-06T03:06:44.945Z,9.54
2017-05-06T03:07:55.208Z,9.42
2017-05-06T03:09:05.477Z,9.44
2017-05-06T03:10:15.432Z,9.36
2017-05-06T03:11:25.689Z,9.45
2017-05-06T03:12:35.958Z,9.3
2017-05-06T03:13:46.229Z,9.42
2017-05-06T03:14:56.176Z,9.34
2017-05-06T03:16:06.443Z,9.33
2017-05-06T03:17:16.714Z,9.39
2017-05-06T03:18:26.985Z,9.4
2017-05-06T03:19:37.255Z,9.4
2017-05-06T03:20:47.520Z,9.49
2017-05-06T03:21:57.778Z,9.47
2017-05-06T03:23:08.043Z,9.45
2017-05-06T03:24:17.680Z,9.51
2017-05-06T03:25:27.318Z,9.56
2017-05-06T03:26:37.584Z,9.59
2017-05-06T03:27:47.533Z,9.58
2017-05-06T03:28:57.797Z,9.62
2017-05-06T03:30:07.755Z,9.54
2017-05-06T03:31:17.703Z,9.63
2017-05-06T03:32:27.658Z,9.56
2017-05-06T03:33:37.931Z,9.48
2017-05-06T03:34:48.209Z,9.63
2017-05-06T03:35:58.471Z,9.51
2017-05-06T03:37:08.740Z,9.27
2017-05-06T03:38:18.692Z,9.16
2017-05-06T03:39:28.957Z,9.05
2017-05-06T03:40:39.217Z,8.97
2017-05-06T03:41:49.510Z,8.82
2017-05-06T03:42:59.769Z,8.96
2017-05-06T03:44:09.721Z,9.02
2017-05-06T03:45:19.674Z,9
2017-05-06T03:46:29.940Z,8.97
2017-05-06T03:47:39.892Z,9.13
2017-05-06T03:48:50.155Z,9
2017-05-06T03:50:00.415Z,8.97
2017-05-06T03:51:10.070Z,8.87
2017-05-06T03:52:20.023Z,8.75
2017-05-06T03:53:30.282Z,8.71
2017-05-06T03:54:40.552Z,8.56
2017-05-06T03:55:50.823Z,8.45
2017-05-06T03:57:01.081Z,8.39
2017-05-06T03:58:11.039Z,8.28
2017-05-06T03:59:20.993Z,8.24
2017-05-06T04:00:31.264Z,8.26
2017-05-06T04:01:41.526Z,8.18
2017-05-06T04:02:51.790Z,8.13
2017-05-06T04:04:02.048Z,8.06
2017-05-06T04:05:11.993Z,8.02
2017-05-06T04:06:22.246Z,8.03
2017-05-06T04:07:32.515Z,8.05
2017-05-06T04:08:42.496Z,8.01
2017-05-06T04:09:52.763Z,7.98
2017-05-06T04:11:03.022Z,7.95
2017-05-06T04:12:12.964Z,7.93
2017-05-06T04:13:22.912Z,7.83
2017-05-06T04:14:33.173Z,7.75
2017-05-06T04:15:43.430Z,7.69
2017-05-06T04:16:53.693Z,7.67
2017-05-06T04:18:03.952Z,7.67
2017-05-06T04:19:14.222Z,7.66
2017-05-06T04:20:24.480Z,7.58
2017-05-06T04:21:34.425Z,7.58
2017-05-06T04:22:44.886Z,7.61
2017-05-06T04:23:55.147Z,7.47
2017-05-06T04:25:05.410Z,7.46
2017-05-06T04:26:15.362Z,7.55
2017-05-06T04:27:25.314Z,7.47
2017-05-06T04:28:35.570Z,7.48
2017-05-06T04:29:45.836Z,7.48
2017-05-06T04:30:56.110Z,7.61
2017-05-06T04:32:06.367Z,7.64
2017-05-06T04:33:16.316Z,7.55
2017-05-06T04:34:26.270Z,7.64
2017-05-06T04:35:36.529Z,7.66
2017-05-06T04:36:46.789Z,7.72
2017-05-06T04:37:57.052Z,7.7
2017-05-06T04:39:07.316Z,7.72
2017-05-06T04:40:17.578Z,7.74
2017-05-06T04:41:27.871Z,7.75
2017-05-06T04:42:37.830Z,7.91
2017-05-06T04:43:47.789Z,7.95
2017-05-06T04:44:57.741Z,7.99
2017-05-06T04:46:07.687Z,8.08
2017-05-06T04:47:17.319Z,8.17
2017-05-06T04:48:27.273Z,8.28
2017-05-06T04:49:37.535Z,8.24
2017-05-06T04:50:47.793Z,8.24
2017-05-06T04:51:57.739Z,8.44
2017-05-06T04:53:08.003Z,8.38
2017-05-06T04:54:17.328Z,8.42
2017-05-06T04:55:27.274Z,8.45
2017-05-06T04:56:37.534Z,8.49
2017-05-06T04:57:47.798Z,8.57
2017-05-06T04:58:58.059Z,8.66
2017-05-06T05:00:08.011Z,8.63
2017-05-06T05:01:17.334Z,8.72
2017-05-06T05:02:27.603Z,8.89
2017-05-06T05:03:37.868Z,8.86
2017-05-06T05:04:47.817Z,8.99
2017-05-06T05:05:57.455Z,9.12
2017-05-06T05:07:07.406Z,9.09
2017-05-06T05:08:17.039Z,9.15
2017-05-06T05:09:26.995Z,9.16
2017-05-06T05:10:36.943Z,9.27
2017-05-06T05:11:47.201Z,9.39
2017-05-06T05:12:57.460Z,9.4
2017-05-06T05:14:07.404Z,9.49
2017-05-06T05:15:17.363Z,9.56
2017-05-06T05:16:27.623Z,9.64
2017-05-06T05:17:37.892Z,9.69
2017-05-06T05:18:48.161Z,9.77
2017-05-06T05:19:58.462Z,9.9
2017-05-06T05:21:08.721Z,9.92
2017-05-06T05:22:18.979Z,9.84
2017-05-06T05:23:29.235Z,9.99
2017-05-06T05:24:39.494Z,9.94
2017-05-06T05:25:49.757Z,10.06
2017-05-06T05:27:00.016Z,9.95
2017-05-06T05:28:10.286Z,10.05
2017-05-06T05:29:20.232Z,10.12
2017-05-06T05:30:30.486Z,10.15
2017-05-06T05:31:40.440Z,10.12
2017-05-06T05:32:50.700Z,10.15
2017-05-06T05:34:00.961Z,10.15
2017-05-06T05:35:10.909Z,10.2
2017-05-06T05:36:21.478Z,10.24
2017-05-06T05:37:31.739Z,10.27
2017-05-06T05:38:41.690Z,10.34
2017-05-06T05:39:51.645Z,10.41
2017-05-06T05:41:01.913Z,10.36
2017-05-06T05:42:11.891Z,10.38
2017-05-06T05:43:22.164Z,10.48
2017-05-06T05:44:32.432Z,10.51
2017-05-06T05:45:42.387Z,10.49
2017-05-06T05:46:52.651Z,10.51
2017-05-06T05:48:02.914Z,10.48
2017-05-06T05:49:12.869Z,10.49
2017-05-06T05:50:23.139Z,10.55
2017-05-06T05:51:33.413Z,10.62
2017-05-06T05:52:43.681Z,10.59
2017-05-06T05:53:53.948Z,10.61
2017-05-06T05:55:04.221Z,10.67
2017-05-06T05:56:14.482Z,10.67
2017-05-06T05:57:24.754Z,10.71
2017-05-06T05:58:35.018Z,10.72
2017-05-06T05:59:45.315Z,10.76
2017-05-06T06:00:55.583Z,10.86
2017-05-06T06:02:05.852Z,10.87
2017-05-06T06:03:14.865Z,10.77
2017-05-06T06:04:25.127Z,10.84
2017-05-06T06:05:35.113Z,10.89
2017-05-06T06:06:45.373Z,10.97
2017-05-06T06:07:55.640Z,10.98
2017-05-06T06:09:05.903Z,11.04
2017-05-06T06:10:15.852Z,11.02
2017-05-06T06:11:25.485Z,11.02
2017-05-06T06:12:35.745Z,11.08
2017-05-06T06:13:46.010Z,11.05
2017-05-06T06:14:56.274Z,11.1
2017-05-06T06:16:06.540Z,11.13
2017-05-06T06:17:17.061Z,11.22
2017-05-06T06:18:27.011Z,11.16
2017-05-06T06:19:37.272Z,11.26
2017-05-06T06:20:47.540Z,11.35
2017-05-06T06:21:57.802Z,11.3
2017-05-06T06:23:07.753Z,11.38
2017-05-06T06:24:17.709Z,11.44
2017-05-06T06:25:27.664Z,11.41
2017-05-06T06:26:37.619Z,11.48
2017-05-06T06:27:47.249Z,11.51
2017-05-06T06:28:57.402Z,11.43
2017-05-06T06:30:07.353Z,11.45
2017-05-06T06:31:16.675Z,11.53
2017-05-06T06:32:26.937Z,11.52
2017-05-06T06:33:37.201Z,11.53
2017-05-06T06:34:47.471Z,11.45
2017-05-06T06:35:57.768Z,11.53
2017-05-06T06:37:07.720Z,11.59
2017-05-06T06:38:17.983Z,11.62
2017-05-06T06:39:28.250Z,11.62
2017-05-06T06:40:38.514Z,11.59
2017-05-06T06:41:48.776Z,11.6
2017-05-06T06:42:59.048Z,11.6
2017-05-06T06:44:09.313Z,11.6
2017-05-06T06:45:18.633Z,11.67
2017-05-06T06:46:32.721Z,11.76
2017-05-06T06:47:42.994Z,11.74
2017-05-06T06:48:53.254Z,11.71
2017-05-06T06:50:03.213Z,11.85
2017-05-06T06:51:12.864Z,11.85
2017-05-06T06:52:23.121Z,11.88
2017-05-06T06:53:33.069Z,11.86
2017-05-06T06:54:43.335Z,11.97
2017-05-06T06:55:53.598Z,11.95
2017-05-06T06:57:03.861Z,12.03
2017-05-06T06:58:14.119Z,11.99
2017-05-06T06:59:24.076Z,12.03
2017-05-06T07:00:34.030Z,11.96
2017-05-06T07:01:44.290Z,12.02
2017-05-06T07:02:54.550Z,12.11
2017-05-06T07:04:04.821Z,12.08
2017-05-06T07:05:14.772Z,12.12
2017-05-06T07:06:24.725Z,12.2
2017-05-06T07:07:34.988Z,12.17
2017-05-06T07:08:45.257Z,12.21
2017-05-06T07:09:55.217Z,12.26
2017-05-06T07:11:05.483Z,12.25
2017-05-06T07:12:14.808Z,12.21
2017-05-06T07:13:24.766Z,12.39
2017-05-06T07:14:34.717Z,12.39
2017-05-06T07:15:44.982Z,12.35
2017-05-06T07:16:55.250Z,12.35
2017-05-06T07:18:05.524Z,12.43
2017-05-06T07:19:15.477Z,12.48
2017-05-06T07:20:25.749Z,12.43
2017-05-06T07:21:35.698Z,12.53
2017-05-06T07:22:45.963Z,12.5
2017-05-06T07:23:56.231Z,12.51
2017-05-06T07:25:06.184Z,12.63
2017-05-06T07:26:16.136Z,12.68
2017-05-06T07:27:26.405Z,12.65
2017-05-06T07:28:36.673Z,12.76
2017-05-06T07:29:46.940Z,12.84
2017-05-06T07:30:57.203Z,12.83
2017-05-06T07:32:07.157Z,12.8
2017-05-06T07:33:16.791Z,12.84
2017-05-06T07:34:26.742Z,12.81
2017-05-06T07:35:36.385Z,12.78
2017-05-06T07:36:46.651Z,12.78
2017-05-06T07:37:56.286Z,12.9
2017-05-06T07:39:06.555Z,12.87
2017-05-06T07:40:16.501Z,12.88
2017-05-06T07:41:26.796Z,12.88
2017-05-06T07:42:37.061Z,13.01
2017-05-06T07:43:47.331Z,13.02
2017-05-06T07:44:57.292Z,13.11
2017-05-06T07:46:07.560Z,13.09
2017-05-06T07:47:17.510Z,13.17
2017-05-06T07:48:27.777Z,13.2
2017-05-06T07:49:37.098Z,13.23
2017-05-06T07:50:47.363Z,13.28
2017-05-06T07:51:57.630Z,13.31
2017-05-06T07:53:07.899Z,13.33
2017-05-06T07:54:17.535Z,13.3
2017-05-06T07:55:27.812Z,13.21
2017-05-06T07:56:38.079Z,13.3
2017-05-06T07:57:48.348Z,13.3
2017-05-06T07:58:57.988Z,13.39
2017-05-06T08:00:07.630Z,13.36
2017-05-06T08:01:17.291Z,13.43
2017-05-06T08:02:27.563Z,13.58
2017-05-06T08:03:37.829Z,13.55
2017-05-06T08:04:48.100Z,13.5
2017-05-06T08:05:58.373Z,13.5
2017-05-06T08:07:08.010Z,13.57
2017-05-06T08:08:17.339Z,13.57
2017-05-06T08:09:27.288Z,13.57
2017-05-06T08:10:37.242Z,13.5
2017-05-06T08:11:47.517Z,13.64
2017-05-06T08:12:57.790Z,13.76
2017-05-06T08:14:08.055Z,13.71
2017-05-06T08:15:18.325Z,13.82
2017-05-06T08:16:28.273Z,13.79
2017-05-06T08:17:38.533Z,13.91
2017-05-06T08:18:48.506Z,13.95
2017-05-06T08:19:58.462Z,14.07
2017-05-06T08:21:08.414Z,14.04
2017-05-06T08:22:18.364Z,14.15
2017-05-06T08:23:28.320Z,14.22
2017-05-06T08:24:38.589Z,14.38
2017-05-06T08:25:48.862Z,14.45
2017-05-06T08:26:59.129Z,14.49
2017-05-06T08:28:08.771Z,14.52
2017-05-06T08:29:19.047Z,14.51
2017-05-06T08:30:29.316Z,14.53
2017-05-06T08:31:38.950Z,14.66
2017-05-06T08:32:49.218Z,14.79
2017-05-06T08:33:59.488Z,14.81
2017-05-06T08:35:09.439Z,14.94
2017-05-06T08:36:19.389Z,14.93
2017-05-06T08:37:29.673Z,15.08
2017-05-06T08:38:39.627Z,15.08
2017-05-06T08:39:49.889Z,15.15
2017-05-06T08:41:00.163Z,15.29
2017-05-06T08:42:10.433Z,15.23
2017-05-06T08:43:20.699Z,15.27
2017-05-06T08:44:30.971Z,15.27
2017-05-06T08:45:40.613Z,15.32
2017-05-06T08:46:50.890Z,15.35
2017-05-06T08:48:01.163Z,15.39
2017-05-06T08:49:11.434Z,15.33
2017-05-06T08:50:21.078Z,15.44
2017-05-06T08:51:30.408Z,15.44
2017-05-06T08:52:40.679Z,15.45
2017-05-06T08:53:50.950Z,15.44
2017-05-06T08:55:01.217Z,15.48
2017-05-06T08:56:10.858Z,15.6
2017-05-06T08:57:20.503Z,15.6
2017-05-06T08:58:30.766Z,15.63
2017-05-06T08:59:40.723Z,15.7
2017-05-06T09:00:50.370Z,15.69
2017-05-06T09:02:00.638Z,15.73
2017-05-06T09:03:10.903Z,15.84
2017-05-06T09:04:21.174Z,15.83
2017-05-06T09:05:31.435Z,15.81
2017-05-06T09:06:41.700Z,15.78
2017-05-06T09:07:51.661Z,15.88
2017-05-06T09:09:01.625Z,15.91
2017-05-06T09:10:11.897Z,15.99
2017-05-06T09:11:21.856Z,15.99
2017-05-06T09:12:32.119Z,15.94
2017-05-06T09:13:42.078Z,16.08
2017-05-06T09:14:52.349Z,16.09
2017-05-06T09:16:02.611Z,16.22
2017-05-06T09:17:12.251Z,16.21
2017-05-06T09:18:22.525Z,16.21
2017-05-06T09:19:32.806Z,16.28
2017-05-06T09:20:43.069Z,16.25
2017-05-06T09:21:53.331Z,16.24
2017-05-06T09:23:03.600Z,16.26
2017-05-06T09:24:13.565Z,16.26
2017-05-06T09:25:23.210Z,16.4
2017-05-06T09:26:33.478Z,16.4
2017-05-06T09:27:43.424Z,16.4
2017-05-06T09:28:53.695Z,16.4
2017-05-06T09:30:03.650Z,16.41
2017-05-06T09:31:13.923Z,16.41
2017-05-06T09:32:24.193Z,16.51
2017-05-06T09:33:34.459Z,16.55
2017-05-06T09:34:44.759Z,16.59
2017-05-06T09:35:55.026Z,16.57
2017-05-06T09:37:04.977Z,16.54
2017-05-06T09:38:15.255Z,16.69
2017-05-06T09:39:25.529Z,16.57
2017-05-06T09:40:35.802Z,16.66
2017-05-06T09:41:45.815Z,16.74
2017-05-06T09:42:56.093Z,16.69
2017-05-06T09:44:06.366Z,16.77
2017-05-06T09:45:16.322Z,16.89
2017-05-06T09:46:25.967Z,16.86
2017-05-06T09:47:35.606Z,16.87
2017-05-06T09:48:45.561Z,16.86
2017-05-06T09:49:55.842Z,16.92
2017-05-06T09:51:06.112Z,16.91
2017-05-06T09:52:16.384Z,17.04
2017-05-06T09:53:26.652Z,17.12
2017-05-06T09:54:36.924Z,17.14
2017-05-06T09:55:46.881Z,17.12
2017-05-06T09:56:57.146Z,17.12
2017-05-06T09:58:07.410Z,17.05
2017-05-06T09:59:17.366Z,17.09
2017-05-06T10:00:27.645Z,17.19
2017-05-06T10:01:37.602Z,17.2
2017-05-06T10:02:47.563Z,17.31
2017-05-06T10:03:57.831Z,17.38
2017-05-06T10:05:08.103Z,17.3
2017-05-06T10:06:18.061Z,17.3
2017-05-06T10:07:28.334Z,17.37
2017-05-06T10:08:38.603Z,17.38
2017-05-06T10:09:48.869Z,17.54
2017-05-06T10:10:59.148Z,17.54
2017-05-06T10:12:09.421Z,17.59
2017-05-06T10:13:19.381Z,17.68
2017-05-06T10:14:29.337Z,17.72
2017-05-06T10:15:39.610Z,17.71
2017-05-06T10:16:49.874Z,17.68
2017-05-06T10:18:00.152Z,17.79
2017-05-06T10:19:10.110Z,17.76
2017-05-06T10:20:20.383Z,17.72
2017-05-06T10:21:30.649Z,17.86
2017-05-06T10:22:40.605Z,17.78
2017-05-06T10:23:50.874Z,17.91
2017-05-06T10:25:01.144Z,17.94
2017-05-06T10:26:11.412Z,17.94
2017-05-06T10:27:21.687Z,18.06
2017-05-06T10:28:31.640Z,18.09
2017-05-06T10:29:41.909Z,18.11
2017-05-06T10:30:52.179Z,18.09
2017-05-06T10:32:02.450Z,18.19
2017-05-06T10:33:12.728Z,18.24
2017-05-06T10:34:22.370Z,18.15
2017-05-06T10:35:32.642Z,18.31
2017-05-06T10:36:42.908Z,18.3
2017-05-06T10:37:53.183Z,18.41
2017-05-06T10:39:03.142Z,18.49
2017-05-06T10:40:13.096Z,18.42
2017-05-06T10:41:23.053Z,18.46
2017-05-06T10:42:33.321Z,18.15
2017-05-06T10:43:43.589Z,18.16
2017-05-06T10:44:53.866Z,18.24
2017-05-06T10:46:03.824Z,18.3
2017-05-06T10:47:13.784Z,18.41
2017-05-06T10:48:24.054Z,18.48
2017-05-06T10:49:34.324Z,18.42
2017-05-06T10:50:44.596Z,18.51
2017-05-06T10:51:54.869Z,18.52
2017-05-06T10:53:05.136Z,18.57
2017-05-06T10:54:14.785Z,18.66
2017-05-06T10:55:25.078Z,18.67
2017-05-06T10:56:35.354Z,18.74
2017-05-06T10:57:45.628Z,18.79
2017-05-06T10:58:55.925Z,18.73
2017-05-06T11:00:06.202Z,18.74
2017-05-06T11:01:16.472Z,18.88
2017-05-06T11:02:26.432Z,18.88
2017-05-06T11:03:36.700Z,18.91
2017-05-06T11:04:46.967Z,19.01
2017-05-06T11:05:57.241Z,19.09
2017-05-06T11:07:07.512Z,19.08
2017-05-06T11:08:17.471Z,19.07
2017-05-06T11:09:27.738Z,19.2
2017-05-06T11:10:38.011Z,19.26
2017-05-06T11:11:48.313Z,19.38
2017-05-06T11:12:58.270Z,19.41
2017-05-06T11:14:08.544Z,19.47
2017-05-06T11:15:18.181Z,19.48
2017-05-06T11:16:28.446Z,19.64
2017-05-06T11:17:38.719Z,19.57
2017-05-06T11:18:48.995Z,19.63
2017-05-06T11:19:59.271Z,19.85
2017-05-06T11:21:08.941Z,20.14
2017-05-06T11:22:19.213Z,20.4
2017-05-06T11:23:29.486Z,20.88
2017-05-06T11:24:39.760Z,21.38
2017-05-06T11:25:49.718Z,21.78
2017-05-06T11:26:59.678Z,22.37
2017-05-06T11:28:09.636Z,23.02
2017-05-06T11:29:19.901Z,23.58
2017-05-06T11:30:30.173Z,23.91
2017-05-06T11:31:40.448Z,24.31
2017-05-06T11:32:50.719Z,25
2017-05-06T11:34:01.001Z,25.55
2017-05-06T11:35:10.966Z,26.13
2017-05-06T11:36:21.243Z,26.66
2017-05-06T11:37:31.525Z,27.11
2017-05-06T11:38:41.801Z,27.37
2017-05-06T11:39:51.768Z,27.78
2017-05-06T11:41:02.045Z,28.08
2017-05-06T11:42:11.702Z,28.47
2017-05-06T11:43:21.668Z,28.83
2017-05-06T11:44:31.948Z,29.24
2017-05-06T11:45:42.227Z,29.47
2017-05-06T11:46:52.197Z,29.69
2017-05-06T11:48:02.482Z,30.06
2017-05-06T11:49:12.449Z,30.4
2017-05-06T11:50:22.106Z,30.78
2017-05-06T11:51:32.389Z,30.91
2017-05-06T11:52:42.670Z,31.11
2017-05-06T11:53:52.645Z,31.08
2017-05-06T11:55:02.928Z,31.41
2017-05-06T11:56:13.213Z,31.66
2017-05-06T11:57:23.493Z,31.92
2017-05-06T11:58:33.786Z,32.07
2017-05-06T11:59:44.070Z,32.38
2017-05-06T12:00:54.351Z,32.57
2017-05-06T12:02:04.637Z,32.53
2017-05-06T12:03:14.607Z,32.81
2017-05-06T12:04:24.915Z,32.98
2017-05-06T12:05:35.210Z,33.19
2017-05-06T12:06:45.499Z,33.33
2017-05-06T12:07:55.817Z,33.47
2017-05-06T12:09:06.100Z,33.69
2017-05-06T12:10:16.081Z,33.7
2017-05-06T12:11:26.057Z,33.23
2017-05-06T12:12:36.346Z,33.47
2017-05-06T12:13:46.637Z,33.73
2017-05-06T12:14:56.931Z,34.06
2017-05-06T12:16:07.225Z,34.38
2017-05-06T12:17:16.894Z,34.63
2017-05-06T12:18:27.177Z,34.93
2017-05-06T12:19:37.465Z,35.05
2017-05-06T12:20:47.748Z,35.18
2017-05-06T12:21:57.732Z,35.12
2017-05-06T12:23:08.023Z,35.45
2017-05-06T12:24:17.995Z,35.56
2017-05-06T12:25:28.281Z,35.72
2017-05-06T12:26:38.566Z,35.71
2017-05-06T12:27:48.888Z,35.54
2017-05-06T12:28:59.183Z,35.22
2017-05-06T12:30:09.160Z,35.19
2017-05-06T12:31:19.452Z,35.32
2017-05-06T12:32:29.734Z,35.42
2017-05-06T12:33:40.022Z,35.52
2017-05-06T12:34:49.998Z,35.63
2017-05-06T12:36:00.283Z,35.97
2017-05-06T12:37:10.574Z,36.08
2017-05-06T12:38:20.858Z,36.35
2017-05-06T12:39:31.148Z,36.53
2017-05-06T12:40:41.445Z,36.78
2017-05-06T12:41:51.729Z,36.99
2017-05-06T12:43:01.722Z,36.91
2017-05-06T12:44:11.695Z,37.03
2017-05-06T12:45:21.356Z,37.03
2017-05-06T12:46:31.337Z,37.03
2017-05-06T12:47:41.630Z,37.33
2017-05-06T12:48:51.916Z,37.25
2017-05-06T12:50:01.898Z,37.43
2017-05-06T12:51:11.878Z,37.58
2017-05-06T12:52:22.173Z,37.44
2017-05-06T12:53:32.466Z,37.47
2017-05-06T12:54:42.755Z,37.79
2017-05-06T12:55:52.752Z,38
2017-05-06T12:57:03.042Z,38.13
2017-05-06T12:58:13.024Z,38.35
2017-05-06T12:59:23.313Z,38.14
2017-05-06T13:00:33.287Z,38.32
2017-05-06T13:01:43.573Z,38.63
2017-05-06T13:02:53.862Z,38.82
2017-05-06T13:04:04.145Z,38.79
2017-05-06T13:05:14.126Z,38.65
2017-05-06T13:06:24.419Z,38.57
2017-05-06T13:07:34.084Z,38.51
2017-05-06T13:08:44.385Z,38.75
2017-05-06T13:09:54.376Z,38.82
2017-05-06T13:11:04.354Z,38.98
2017-05-06T13:12:14.654Z,38.35
2017-05-06T13:13:24.628Z,38.41
2017-05-06T13:14:34.606Z,38.7
2017-05-06T13:15:44.899Z,38.7
2017-05-06T13:16:55.200Z,38.6
2017-05-06T13:18:05.484Z,38.7
2017-05-06T13:19:15.143Z,38.95
2017-05-06T13:20:25.433Z,38.87
2017-05-06T13:21:35.719Z,38.84
2017-05-06T13:22:46.013Z,39.04
2017-05-06T13:23:56.311Z,38.35
2017-05-06T13:25:06.604Z,38.68
2017-05-06T13:26:16.897Z,38.72
2017-05-06T13:27:26.878Z,38.96
2017-05-06T13:28:37.168Z,39.08
2017-05-06T13:29:47.462Z,39.07
2017-05-06T13:30:57.757Z,39.37
2017-05-06T13:32:07.739Z,39.45
2017-05-06T13:33:17.724Z,39.52
2017-05-06T13:34:28.017Z,39.75
2017-05-06T13:35:38.317Z,39.91
2017-05-06T13:36:48.615Z,40.16
2017-05-06T13:37:58.947Z,39.95
2017-05-06T13:39:08.926Z,40.17
2017-05-06T13:40:19.220Z,40.1
2017-05-06T13:41:29.518Z,40.23
2017-05-06T13:42:39.499Z,40.4
2017-05-06T13:43:49.477Z,40.58
2017-05-06T13:44:59.454Z,40.88
2017-05-06T13:46:09.432Z,40.92
2017-05-06T13:47:19.725Z,40.67
2017-05-06T13:48:30.017Z,40.99
2017-05-06T13:49:40.310Z,41.2
2017-05-06T13:50:50.600Z,41.39
2017-05-06T13:52:00.891Z,40.99
2017-05-06T13:53:10.866Z,40.7
2017-05-06T13:54:21.158Z,40.89
2017-05-06T13:55:31.451Z,41.04
2017-05-06T13:56:41.748Z,41.12
2017-05-06T13:57:52.041Z,40.86
2017-05-06T13:59:02.361Z,40.83
2017-05-06T14:00:12.034Z,40.83
2017-05-06T14:01:22.327Z,40.95
2017-05-06T14:02:32.625Z,40.86
2017-05-06T14:03:42.601Z,40.71
2017-05-06T14:04:52.899Z,40.62
2017-05-06T14:06:03.200Z,40.2
2017-05-06T14:07:13.486Z,40.58
2017-05-06T14:08:23.778Z,40.77
2017-05-06T14:09:33.758Z,40.9
2017-05-06T14:10:44.053Z,40.96
2017-05-06T14:11:54.031Z,41
2017-05-06T14:13:04.321Z,41.07
2017-05-06T14:14:14.303Z,41.08
2017-05-06T14:15:24.601Z,40.59
2017-05-06T14:16:34.581Z,40.13
2017-05-06T14:17:44.874Z,40.05
2017-05-06T14:18:54.848Z,39.93
2017-05-06T14:20:05.142Z,40.17
2017-05-06T14:21:15.123Z,40.29
2017-05-06T14:22:25.105Z,40.48
2017-05-06T14:23:35.084Z,40.71
2017-05-06T14:24:45.375Z,40.9
2017-05-06T14:25:55.357Z,40.95
2017-05-06T14:27:05.341Z,41.17
2017-05-06T14:28:15.632Z,41.23
2017-05-06T14:29:25.914Z,41.12
2017-05-06T14:30:35.892Z,40.9
2017-05-06T14:31:46.189Z,40.42
2017-05-06T14:32:56.169Z,40.12
2017-05-06T14:34:06.471Z,39.97
2017-05-06T14:35:16.763Z,39.83
2017-05-06T14:36:27.048Z,39.95
2017-05-06T14:37:37.338Z,40.02
2017-05-06T14:38:47.676Z,40.14
2017-05-06T14:39:57.652Z,40
2017-05-06T14:41:07.972Z,40.01
2017-05-06T14:42:17.951Z,40.08
2017-05-06T14:43:27.938Z,40.39
2017-05-06T14:44:38.230Z,40.57
2017-05-06T14:45:48.518Z,40.43
2017-05-06T14:46:57.867Z,40.35
2017-05-06T14:48:08.159Z,40.64
2017-05-06T14:49:18.457Z,40.88
2017-05-06T14:50:28.430Z,40.8
2017-05-06T14:51:38.722Z,41.08
2017-05-06T14:52:49.014Z,41
2017-05-06T14:53:59.299Z,40.95
2017-05-06T14:55:09.280Z,41.05
2017-05-06T14:56:19.574Z,41.18
2017-05-06T14:57:29.860Z,41.26
2017-05-06T14:58:40.149Z,41.14
2017-05-06T14:59:50.435Z,41.23
2017-05-06T15:01:00.730Z,41.08
2017-05-06T15:02:10.108Z,40.88
2017-05-06T15:03:19.778Z,40.95
2017-05-06T15:04:30.067Z,40.55
2017-05-06T15:05:40.352Z,40.14
2017-05-06T15:06:50.644Z,39.95
2017-05-06T15:07:59.990Z,39.79
2017-05-06T15:09:10.284Z,39.68
2017-05-06T15:10:19.947Z,39.67
2017-05-06T15:11:30.240Z,39.73
2017-05-06T15:12:40.526Z,39.79